Time;durP1;ratioP1;P1;durP2;ratioP2;P2;SDS_P1;SDS_P2;PMS_P1;PMS_P2;Temp;Humidity;BMP_temperature;BMP_pressure;BME280_temperature;BME280_humidity;BME280_pressure;Samples;Min_cycle;Max_cycle;Signal;HPM_P1;HPM_P2
2022/04/16 00:01:17;;;;;;;14.90;11.17;;;;;;;19.14;67.05;100391.66;1734521;81;21175;-57
2022/04/16 00:03:45;;;;;;;13.63;10.47;;;;;;;19.14;67.22;100388.22;1734021;81;21164;-57
2022/04/16 00:06:12;;;;;;;14.33;10.57;;;;;;;18.92;69.27;100384.09;1734610;81;21307;-57
2022/04/16 00:08:39;;;;;;;11.83;9.60;;;;;;;19.12;68.34;100383.67;1734474;81;21136;-56
2022/04/16 00:11:06;;;;;;;14.17;11.10;;;;;;;19.14;68.44;100389.53;1734712;81;21832;-55
2022/04/16 00:13:34;;;;;;;15.10;10.80;;;;;;;19.21;67.37;100398.12;1734073;82;21250;-56
2022/04/16 00:16:03;;;;;;;13.47;10.63;;;;;;;19.34;66.16;100388.57;1722741;82;21147;-58
2022/04/16 00:18:29;;;;;;;14.27;10.73;;;;;;;19.29;66.58;100388.49;1734563;81;21315;-64
2022/04/16 00:20:57;;;;;;;15.67;10.90;;;;;;;19.31;66.08;100381.64;1734260;82;21589;-57
2022/04/16 00:23:26;;;;;;;14.50;10.63;;;;;;;19.28;65.48;100381.61;1734180;82;21343;-55
2022/04/16 00:25:53;;;;;;;15.07;11.00;;;;;;;19.19;65.87;100379.84;1735534;81;21090;-55
2022/04/16 00:28:20;;;;;;;12.53;10.20;;;;;;;19.20;66.12;100382.77;1735185;81;21713;-56
2022/04/16 00:30:47;;;;;;;14.03;10.30;;;;;;;19.13;66.49;100377.34;1733841;82;21238;-56
2022/04/16 00:33:13;;;;;;;13.20;11.00;;;;;;;19.20;66.46;100381.45;1734402;82;21232;-55
2022/04/16 00:35:44;;;;;;;14.17;11.03;;;;;;;19.17;66.62;100379.83;1734125;82;21017;-56
2022/04/16 00:38:11;;;;;;;11.60;10.00;;;;;;;19.10;66.61;100373.35;1735103;81;21186;-55
2022/04/16 00:40:39;;;;;;;13.83;11.00;;;;;;;19.15;66.62;100372.11;1733941;82;21269;-63
2022/04/16 00:43:06;;;;;;;15.43;10.80;;;;;;;19.10;66.77;100374.67;1734641;81;21211;-56
2022/04/16 00:45:37;;;;;;;17.53;11.47;;;;;;;19.11;67.25;100369.66;1734268;82;21258;-58
2022/04/16 00:48:05;;;;;;;13.63;11.13;;;;;;;19.13;67.15;100375.53;1734602;82;21286;-56
2022/04/16 00:50:32;;;;;;;14.17;10.43;;;;;;;19.02;67.70;100369.77;1734374;81;21225;-59
2022/04/16 00:52:59;;;;;;;16.43;11.70;;;;;;;19.03;67.93;100370.05;1735486;81;21084;-57
2022/04/16 00:55:28;;;;;;;14.17;10.77;;;;;;;18.87;69.00;100366.84;1734448;81;21015;-55
2022/04/16 00:57:54;;;;;;;14.90;10.70;;;;;;;18.84;69.39;100364.14;1734503;82;21174;-59
2022/04/16 01:00:22;;;;;;;12.30;10.63;;;;;;;18.97;68.00;100361.73;1734856;81;21181;-66
2022/04/16 01:02:49;;;;;;;15.17;10.33;;;;;;;18.90;68.25;100367.17;1733703;82;21191;-57
2022/04/16 01:05:19;;;;;;;14.57;11.07;;;;;;;18.98;67.32;100369.13;1735013;81;21186;-56
2022/04/16 01:07:53;;;;;;;12.93;10.23;;;;;;;19.01;67.43;100370.78;1723858;81;21232;-57
2022/04/16 01:10:26;;;;;;;16.00;11.20;;;;;;;19.08;66.53;100374.61;1734390;81;21196;-66
2022/04/16 01:12:55;;;;;;;14.38;10.98;;;;;;;19.27;65.83;100364.66;1734233;82;21318;-57
2022/04/16 01:15:23;;;;;;;13.07;11.07;;;;;;;19.10;66.68;100369.39;1734243;82;20957;-57
2022/04/16 01:17:51;;;;;;;13.93;10.43;;;;;;;19.09;66.78;100370.92;1734805;82;21190;-57
2022/04/16 01:20:18;;;;;;;12.90;10.43;;;;;;;19.14;66.48;100369.20;1734738;82;21267;-60
2022/04/16 01:22:50;;;;;;;14.50;10.17;;;;;;;19.13;66.71;100370.24;1734507;82;21688;-56
2022/04/16 01:25:18;;;;;;;14.33;11.23;;;;;;;19.16;65.12;100371.06;1734069;81;22145;-56
2022/04/16 01:27:46;;;;;;;14.97;10.57;;;;;;;19.10;65.60;100368.06;1733793;82;21216;-56
2022/04/16 01:30:17;;;;;;;14.57;11.27;;;;;;;19.08;65.61;100367.48;1734702;81;21144;-66
2022/04/16 01:32:44;;;;;;;12.67;10.50;;;;;;;18.98;65.61;100362.03;1735706;81;22152;-56
2022/04/16 01:35:12;;;;;;;13.87;10.60;;;;;;;19.18;65.22;100354.99;1734371;82;21893;-57
2022/04/16 01:37:40;;;;;;;13.17;9.73;;;;;;;19.13;64.96;100361.48;1733911;82;21208;-56
2022/04/16 01:40:11;;;;;;;15.30;11.00;;;;;;;19.03;65.90;100356.84;1734059;82;21148;-66
2022/04/16 01:42:41;;;;;;;15.73;11.63;;;;;;;19.01;65.13;100352.30;1734476;82;21624;-58
2022/04/16 01:45:09;;;;;;;13.63;10.37;;;;;;;18.90;65.87;100349.17;1735125;81;21024;-58
2022/04/16 01:47:38;;;;;;;12.03;9.53;;;;;;;18.84;65.78;100351.45;1734533;82;21267;-57
2022/04/16 01:50:08;;;;;;;15.00;11.33;;;;;;;18.76;66.00;100358.44;1733763;82;21235;-57
2022/04/16 01:52:38;;;;;;;15.53;11.00;;;;;;;18.71;65.85;100352.02;1734174;82;22055;-56
2022/04/16 01:55:07;;;;;;;15.13;11.13;;;;;;;18.66;65.84;100349.23;1735313;81;21075;-56
2022/04/16 01:57:34;;;;;;;15.27;10.67;;;;;;;18.75;64.63;100344.92;1734181;82;21608;-57
2022/04/16 02:00:01;;;;;;;16.30;11.10;;;;;;;18.66;65.12;100346.59;1734051;82;21140;-57
2022/04/16 02:02:29;;;;;;;15.73;11.03;;;;;;;18.59;65.57;100356.47;1734236;82;22148;-57
2022/04/16 02:04:56;;;;;;;14.30;11.13;;;;;;;18.53;65.89;100352.67;1734050;82;21181;-56
2022/04/16 02:07:23;;;;;;;14.90;11.20;;;;;;;18.55;65.77;100351.38;1734329;82;21093;-56
2022/04/16 02:09:50;;;;;;;12.17;10.10;;;;;;;18.49;65.41;100353.64;1734885;81;21182;-55
2022/04/16 02:12:17;;;;;;;13.30;10.40;;;;;;;18.44;66.37;100351.68;1734906;81;21103;-66
2022/04/16 02:14:43;;;;;;;15.20;11.17;;;;;;;18.55;65.86;100346.09;1723392;81;21542;-56
2022/04/16 02:17:11;;;;;;;14.37;10.60;;;;;;;18.50;65.84;100354.45;1734069;82;21218;-56
2022/04/16 02:19:38;;;;;;;12.73;10.40;;;;;;;18.62;64.89;100348.09;1734540;82;21241;-57
2022/04/16 02:22:06;;;;;;;13.07;9.90;;;;;;;18.57;64.85;100348.00;1734067;82;21669;-67
2022/04/16 02:24:33;;;;;;;18.47;11.50;;;;;;;18.47;65.71;100351.74;1734678;81;21264;-59
2022/04/16 02:26:59;;;;;;;14.30;10.63;;;;;;;18.28;67.84;100350.28;1734314;82;21195;-57
2022/04/16 02:29:28;;;;;;;14.63;10.33;;;;;;;18.43;67.25;100345.33;1735437;81;21181;-56
2022/04/16 02:31:55;;;;;;;12.63;9.80;;;;;;;18.33;68.03;100347.22;1734764;81;21239;-56
2022/04/16 02:34:22;;;;;;;15.50;11.10;;;;;;;18.27;68.56;100347.37;1733788;82;21319;-57
2022/04/16 02:36:48;;;;;;;13.73;10.70;;;;;;;18.45;67.45;100344.06;1733857;82;21647;-58
2022/04/16 02:39:15;;;;;;;12.60;10.67;;;;;;;18.49;67.62;100349.69;1734362;82;22454;-57
2022/04/16 02:41:42;;;;;;;13.17;11.03;;;;;;;18.55;66.56;100347.42;1734055;82;21183;-56
2022/04/16 02:47:05;;;;;;;13.35;9.93;;;;;;;18.44;67.15;100352.20;1735131;81;21757;-59
2022/04/16 02:49:25;;;;;;;13.53;9.53;;;;;;;18.63;66.15;100353.65;1736003;81;20994;-56
2022/04/16 02:51:54;;;;;;;15.48;10.90;;;;;;;18.69;65.73;100347.45;1734392;82;21016;-58
2022/04/16 02:54:25;;;;;;;12.87;10.10;;;;;;;18.68;66.48;100349.81;1733648;82;21465;-57
2022/04/16 02:56:51;;;;;;;15.07;11.23;;;;;;;18.74;65.51;100356.01;1734166;82;22003;-59
2022/04/16 02:59:18;;;;;;;13.47;10.57;;;;;;;18.75;65.63;100359.45;1700139;82;21195;-58
2022/04/16 03:01:46;;;;;;;15.27;11.00;;;;;;;18.62;67.00;100352.05;1735084;81;21196;-58
2022/04/16 03:04:13;;;;;;;12.30;9.77;;;;;;;18.56;67.67;100350.36;1734594;81;21174;-62
2022/04/16 03:06:40;;;;;;;14.87;10.83;;;;;;;18.53;67.95;100356.10;1734593;81;20963;-57
2022/04/16 03:09:06;;;;;;;13.13;10.13;;;;;;;18.72;66.97;100352.81;1734848;81;21246;-56
2022/04/16 03:11:33;;;;;;;14.43;11.03;;;;;;;18.72;66.37;100348.86;1735093;81;21123;-58
2022/04/16 03:17:31;;;;;;;14.27;9.47;;;;;;;18.78;66.39;100343.14;1734429;82;21655;-57
2022/04/16 03:19:15;;;;;;;14.60;10.87;;;;;;;18.91;66.26;100350.28;1733588;82;21387;-56
2022/04/16 03:21:42;;;;;;;15.23;10.40;;;;;;;19.03;64.78;100350.75;1734107;82;21143;-56
2022/04/16 03:24:08;;;;;;;12.07;9.97;;;;;;;19.06;64.43;100344.48;1733891;82;21784;-58
2022/04/16 03:26:36;;;;;;;14.80;11.27;;;;;;;19.12;63.90;100346.68;1734236;82;21771;-56
2022/04/16 03:29:04;;;;;;;13.10;10.40;;;;;;;19.18;62.94;100342.58;1734273;82;21258;-57
2022/04/16 03:31:32;;;;;;;15.00;10.70;;;;;;;19.22;62.68;100338.14;1734633;82;21210;-59
2022/04/16 03:33:58;;;;;;;14.67;11.00;;;;;;;19.23;62.16;100339.22;1734527;81;21033;-66
2022/04/16 03:36:27;;;;;;;15.43;10.63;;;;;;;19.29;62.00;100338.80;1734909;81;21335;-56
2022/04/16 03:38:53;;;;;;;12.37;10.23;;;;;;;19.23;61.59;100337.89;1734939;81;21206;-56
2022/04/16 03:41:20;;;;;;;14.43;11.10;;;;;;;19.10;62.38;100342.97;1734920;81;22399;-57
2022/04/16 03:43:47;;;;;;;12.50;9.47;;;;;;;19.16;62.18;100347.28;1735376;81;21681;-66
2022/04/16 03:46:16;;;;;;;14.80;10.77;;;;;;;19.14;62.80;100344.09;1734452;82;21646;-58
2022/04/16 03:48:45;;;;;;;17.83;11.20;;;;;;;19.27;62.48;100340.86;1722824;82;21203;-58
2022/04/16 03:51:11;;;;;;;16.57;11.87;;;;;;;19.40;61.55;100339.25;1734905;81;21254;-56
2022/04/16 03:53:38;;;;;;;14.43;10.77;;;;;;;19.54;60.17;100341.84;1735336;81;21361;-56
2022/04/16 04:01:35;;;;;;;13.00;10.33;;;;;;;19.62;60.20;100346.79;1733924;82;21210;-58
2022/04/16 04:04:02;;;;;;;13.73;10.70;;;;;;;19.47;61.34;100345.16;1734333;82;21242;-56
2022/04/16 04:06:29;;;;;;;17.83;11.43;;;;;;;19.52;61.58;100343.94;1744754;81;21388;-58
2022/04/16 04:08:57;;;;;;;15.57;11.63;;;;;;;19.84;59.99;100342.08;1746475;81;21729;-57
2022/04/16 04:11:23;;;;;;;13.20;10.70;;;;;;;20.01;59.79;100340.75;1746540;81;21496;-56
2022/04/16 04:13:50;;;;;;;15.33;10.60;;;;;;;20.12;60.51;100338.00;1745669;82;21187;-64
2022/04/16 04:16:19;;;;;;;13.13;10.63;;;;;;;20.27;57.98;100332.64;1746201;82;21203;-58
2022/04/16 04:18:46;;;;;;;13.37;9.93;;;;;;;20.27;57.98;100332.64;1746126;82;21356;-58
2022/04/16 04:21:13;;;;;;;14.97;11.43;;;;;;;20.79;56.95;100326.38;1746294;81;21125;-60
2022/04/16 04:23:40;;;;;;;12.90;9.60;;;;;;;21.05;56.25;100326.11;1745975;82;21217;-56
2022/04/16 04:26:06;;;;;;;13.07;10.57;;;;;;;21.33;55.00;100326.95;1745591;82;21405;-56
2022/04/16 04:28:33;;;;;;;14.83;11.20;;;;;;;21.57;53.34;100322.89;1745852;82;21707;-56
2022/04/16 04:31:00;;;;;;;15.73;11.93;;;;;;;21.54;52.25;100326.57;1746230;81;21561;-58
2022/04/16 04:33:26;;;;;;;14.00;10.87;;;;;;;21.43;51.69;100370.77;1746028;82;21676;-56
2022/04/16 04:35:54;;;;;;;13.47;12.07;;;;;;;21.16;51.77;100328.34;1745316;82;21645;-57
2022/04/16 04:38:22;;;;;;;13.67;10.17;;;;;;;21.05;52.25;100334.06;1746565;81;21770;-56
2022/04/16 04:40:49;;;;;;;14.60;11.23;;;;;;;20.91;52.49;100335.53;1746579;81;21677;-57
2022/04/16 04:43:17;;;;;;;16.40;13.07;;;;;;;20.60;53.63;100333.84;1746066;82;21627;-56
2022/04/16 04:45:46;;;;;;;13.33;11.43;;;;;;;20.49;55.86;100341.39;1746061;81;22241;-63
2022/04/16 04:48:13;;;;;;;15.60;10.90;;;;;;;20.49;55.86;100341.39;1746487;81;22379;-57
2022/04/16 04:50:40;;;;;;;14.13;11.50;;;;;;;20.45;55.99;100334.96;1746168;81;21427;-56
2022/04/16 04:53:06;;;;;;;14.63;11.83;;;;;;;20.36;56.83;100337.24;1745793;82;21632;-56
2022/04/16 04:55:33;;;;;;;14.93;11.00;;;;;;;20.49;56.60;100334.77;1746496;81;21664;-57
2022/04/16 04:58:00;;;;;;;12.97;10.47;;;;;;;20.35;58.10;100331.68;1745536;82;21435;-66
2022/04/16 05:00:28;;;;;;;14.20;10.60;;;;;;;20.49;57.86;100326.83;1746054;82;22264;-56
2022/04/16 05:02:54;;;;;;;17.37;10.80;;;;;;;20.49;57.76;100329.48;1746563;81;21321;-57
2022/04/16 05:05:22;;;;;;;14.53;10.83;;;;;;;20.86;57.58;100337.59;1742374;82;21562;-56
2022/04/16 05:07:48;;;;;;;13.53;10.40;;;;;;;20.86;57.58;100337.59;1734701;81;21484;-58
2022/04/16 05:10:16;;;;;;;14.53;9.80;;;;;;;21.12;55.54;100336.00;1734536;81;21424;-57
2022/04/16 05:12:42;;;;;;;12.90;10.50;;;;;;;21.27;54.34;100327.39;1734007;82;21630;-57
2022/04/16 05:15:10;;;;;;;13.53;10.27;;;;;;;21.38;53.96;100330.95;1734662;81;21630;-56
2022/04/16 05:17:37;;;;;;;10.83;8.70;;;;;;;21.66;53.33;100328.52;1734781;81;22614;-57
2022/04/16 05:20:08;;;;;;;11.97;9.67;;;;;;;21.97;52.65;100336.17;1733714;81;22941;-58
2022/04/16 05:22:35;;;;;;;13.33;10.37;;;;;;;22.30;51.13;100335.02;1734878;81;21005;-58
2022/04/16 05:25:06;;;;;;;13.53;10.27;;;;;;;22.62;50.65;100330.12;1734320;82;21443;-60
2022/04/16 05:27:34;;;;;;;12.17;9.77;;;;;;;22.91;48.50;100325.16;1734637;82;20995;-60
2022/04/16 05:30:13;;;;;;;13.80;8.97;;;;;;;22.81;47.57;100323.80;1734171;82;20962;-60
2022/04/16 05:32:42;;;;;;;12.13;8.10;;;;;;;22.59;47.83;100316.03;1734698;81;21851;-60
2022/04/16 05:35:10;;;;;;;12.63;9.23;;;;;;;22.70;47.43;100316.86;1735331;81;20939;-60
2022/04/16 05:37:37;;;;;;;11.00;8.67;;;;;;;22.74;47.52;100314.73;1734252;81;20990;-66
2022/04/16 05:40:05;;;;;;;11.77;8.33;;;;;;;23.01;47.57;100312.43;1734186;82;20966;-57
2022/04/16 05:42:32;;;;;;;10.70;7.90;;;;;;;23.22;46.96;100310.57;1734256;82;21029;-58
2022/04/16 05:45:01;;;;;;;11.50;8.13;;;;;;;23.43;45.88;100300.20;1700648;82;21160;-57
2022/04/16 05:47:28;;;;;;;11.23;7.90;;;;;;;23.54;44.80;100295.14;1735017;81;20983;-67
2022/04/16 05:49:55;;;;;;;11.00;8.90;;;;;;;23.46;44.63;100295.69;1734537;81;20995;-59
2022/04/16 05:52:22;;;;;;;12.70;9.17;;;;;;;23.57;44.35;100293.02;1735961;81;21023;-58
2022/04/16 05:54:51;;;;;;;11.73;8.47;;;;;;;23.79;43.92;100301.53;1734229;82;20974;-58
2022/04/16 05:57:20;;;;;;;12.40;9.27;;;;;;;24.19;43.32;100300.59;1734125;82;21160;-60
2022/04/16 05:59:49;;;;;;;10.77;7.80;;;;;;;24.65;42.80;100306.28;1734894;81;21025;-57
2022/04/16 06:02:15;;;;;;;14.30;8.23;;;;;;;24.84;42.30;100301.89;1734437;82;20950;-59
2022/04/16 06:04:42;;;;;;;9.70;7.63;;;;;;;24.94;41.28;100302.38;1734400;82;21003;-56
2022/04/16 06:07:10;;;;;;;11.90;9.17;;;;;;;24.89;41.22;100301.88;1744579;82;20966;-58
2022/04/16 06:09:37;;;;;;;14.27;8.77;;;;;;;24.68;41.68;100299.86;1746615;81;21596;-57
2022/04/16 06:12:05;;;;;;;11.47;8.73;;;;;;;24.79;41.59;100301.14;1746300;81;20959;-58
2022/04/16 06:14:32;;;;;;;9.50;7.60;;;;;;;24.84;41.49;100299.77;1746382;82;20970;-59
2022/04/16 06:16:59;;;;;;;11.73;8.53;;;;;;;24.94;41.47;100301.84;1746035;82;20982;-58
2022/04/16 06:19:26;;;;;;;11.00;8.57;;;;;;;25.09;41.26;100302.81;1745947;82;21491;-57
2022/04/16 06:21:54;;;;;;;12.43;8.47;;;;;;;24.98;40.81;100303.41;1746451;81;21265;-58
2022/04/16 06:24:21;;;;;;;11.60;8.20;;;;;;;24.94;40.87;100303.17;1745948;82;20899;-58
2022/04/16 06:26:49;;;;;;;11.27;9.10;;;;;;;24.61;40.90;100309.23;1746134;82;20939;-56
2022/04/16 06:29:17;;;;;;;11.63;9.13;;;;;;;24.35;41.44;100311.19;1745641;82;21033;-66
2022/04/16 06:31:44;;;;;;;13.07;9.20;;;;;;;24.17;41.71;100306.75;1734381;82;21492;-57
2022/04/16 06:34:11;;;;;;;13.27;9.60;;;;;;;23.93;42.22;100303.88;1746230;82;21249;-61
2022/04/16 06:36:38;;;;;;;11.60;9.17;;;;;;;23.85;42.74;100311.09;1746782;81;21085;-57
2022/04/16 06:39:05;;;;;;;12.13;10.83;;;;;;;23.97;42.71;100306.80;1745887;82;21032;-57
2022/04/16 06:41:33;;;;;;;11.00;8.70;;;;;;;23.70;43.29;100310.58;1745639;82;21028;-57
2022/04/16 06:43:59;;;;;;;11.20;9.20;;;;;;;23.76;43.06;100314.05;1746323;82;20990;-57
2022/04/16 06:46:26;;;;;;;12.70;9.07;;;;;;;23.57;43.72;100314.31;1746724;81;21156;-58
2022/04/16 06:48:53;;;;;;;13.57;9.10;;;;;;;23.60;43.64;100311.09;1746375;82;20856;-57
2022/04/16 06:51:20;;;;;;;11.83;8.70;;;;;;;23.53;44.00;100313.51;1746107;81;21204;-61
2022/04/16 06:53:47;;;;;;;14.43;9.53;;;;;;;23.67;43.94;100311.11;1746788;81;21474;-58
2022/04/16 06:56:13;;;;;;;10.87;8.67;;;;;;;23.66;43.81;100314.02;1746767;81;20867;-57
2022/04/16 06:58:40;;;;;;;12.20;9.27;;;;;;;23.66;43.70;100308.19;1746212;82;21152;-58
2022/04/16 07:01:06;;;;;;;11.37;9.23;;;;;;;23.50;43.91;100311.91;1739895;81;21077;-59
2022/04/16 07:03:51;;;;;;;13.13;9.77;;;;;;;23.33;44.12;100314.83;1736525;81;20899;-56
2022/04/16 07:06:18;;;;;;;12.87;10.03;;;;;;;23.25;44.51;100320.69;1746161;81;21323;-59
2022/04/16 07:08:46;;;;;;;14.07;9.10;;;;;;;22.98;45.06;100317.73;1746582;81;20903;-59
2022/04/16 07:11:13;;;;;;;12.30;9.20;;;;;;;22.83;45.26;100313.16;1745572;82;21168;-58
2022/04/16 07:13:41;;;;;;;12.80;9.63;;;;;;;23.14;45.02;100315.09;1745898;82;20966;-57
2022/04/16 07:16:08;;;;;;;11.83;9.20;;;;;;;23.09;45.52;100305.79;1746654;81;20967;-58
2022/04/16 07:18:36;;;;;;;12.10;9.60;;;;;;;23.01;45.81;100298.60;1746250;81;21539;-57
2022/04/16 07:21:03;;;;;;;11.30;8.77;;;;;;;22.78;46.41;100301.73;1745819;82;21037;-57
2022/04/16 07:23:30;;;;;;;12.03;9.00;;;;;;;23.04;45.69;100300.73;1746136;82;21376;-56
2022/04/16 07:25:56;;;;;;;14.30;10.20;;;;;;;23.10;45.44;100290.09;1746091;82;21077;-57
2022/04/16 07:28:23;;;;;;;18.33;10.57;;;;;;;23.12;45.66;100293.30;1746021;82;21053;-60
2022/04/16 07:30:51;;;;;;;15.63;10.00;;;;;;;23.10;45.76;100293.55;1746793;81;21491;-56
2022/04/16 07:33:19;;;;;;;12.27;9.70;;;;;;;23.37;45.63;100291.16;1746169;81;20946;-57
2022/04/16 07:35:46;;;;;;;13.67;10.17;;;;;;;23.21;45.86;100294.36;1746535;81;21293;-58
2022/04/16 07:38:13;;;;;;;12.43;10.63;;;;;;;23.33;45.91;100286.11;1746531;81;21029;-56
2022/04/16 07:40:40;;;;;;;15.73;12.43;;;;;;;23.41;46.28;100288.23;1746898;81;21449;-56
2022/04/16 07:43:06;;;;;;;16.10;11.87;;;;;;;23.54;45.74;100290.36;1745483;82;21057;-57
2022/04/16 07:45:34;;;;;;;13.77;11.13;;;;;;;23.67;45.48;100277.84;1746378;82;21641;-59
2022/04/16 07:48:01;;;;;;;12.03;10.63;;;;;;;23.74;45.68;100274.37;1746072;82;22096;-57
2022/04/16 07:50:28;;;;;;;14.13;10.40;;;;;;;23.92;45.76;100274.33;1727188;82;20965;-57
2022/04/16 07:52:56;;;;;;;12.23;10.47;;;;;;;24.60;45.41;100269.00;1746472;81;20923;-66
2022/04/16 07:55:22;;;;;;;11.57;9.20;;;;;;;25.11;43.36;100266.00;1745821;82;21038;-57
2022/04/16 07:57:49;;;;;;;13.10;9.60;;;;;;;25.38;41.44;100264.16;1746519;81;21448;-58
2022/04/16 08:00:16;;;;;;;13.87;9.97;;;;;;;25.35;41.43;100262.08;1746729;81;21881;-57
2022/04/16 08:02:43;;;;;;;12.50;9.10;;;;;;;25.34;40.57;100255.91;1734824;81;20946;-67
2022/04/16 08:05:10;;;;;;;11.10;9.30;;;;;;;24.86;41.20;100257.10;1745978;81;21034;-57
2022/04/16 08:07:37;;;;;;;12.67;9.83;;;;;;;24.97;41.17;100250.62;1737453;81;22374;-57
2022/04/16 08:10:09;;;;;;;13.57;10.63;;;;;;;24.88;41.66;100250.94;1735330;81;21089;-57
2022/04/16 08:12:37;;;;;;;11.63;10.00;;;;;;;25.25;41.33;100246.94;1735115;81;21256;-57
2022/04/16 08:15:12;;;;;;;10.50;9.40;;;;;;;25.24;40.50;100246.69;1734184;81;21382;-58
2022/04/16 08:17:38;;;;;;;10.80;9.30;;;;;;;25.11;40.66;100260.12;1735436;81;20967;-57
2022/04/16 08:20:07;;;;;;;11.97;10.30;;;;;;;24.62;41.86;100257.52;1734528;81;21018;-58
2022/04/16 08:22:38;;;;;;;10.80;9.73;;;;;;;24.85;41.13;100266.19;1734345;81;21059;-59
2022/04/16 08:27:54;;;;;;;14.43;11.43;;;;;;;25.09;40.93;100257.47;1735039;81;20915;-59
2022/04/16 08:30:22;;;;;;;12.83;10.73;;;;;;;25.15;40.71;100252.36;1734646;81;21045;-65
2022/04/16 08:32:49;;;;;;;12.57;10.57;;;;;;;24.95;40.54;100250.09;1734306;81;21089;-57
2022/04/16 08:35:17;;;;;;;13.47;11.30;;;;;;;24.89;40.86;100246.39;1734581;82;20939;-58
2022/04/16 08:37:48;;;;;;;18.87;13.27;;;;;;;24.77;41.48;100262.75;1735141;81;20971;-57
2022/04/16 08:40:17;;;;;;;15.13;13.37;;;;;;;25.03;41.29;100253.23;1734662;81;20979;-67
2022/04/16 08:42:50;;;;;;;17.50;15.40;;;;;;;25.14;41.10;100254.23;1723516;81;21545;-59
2022/04/16 08:45:18;;;;;;;12.77;10.63;;;;;;;25.19;40.69;100260.05;1734880;81;20879;-57
2022/04/16 08:47:46;;;;;;;13.20;11.00;;;;;;;25.15;40.18;100257.69;1724050;81;21023;-57
2022/04/16 08:50:14;;;;;;;16.73;10.47;;;;;;;25.29;40.40;100268.52;1734323;81;21477;-64
2022/04/16 08:52:41;;;;;;;14.47;11.83;;;;;;;25.32;39.72;100254.08;1733543;81;20907;-58
2022/04/16 08:55:11;;;;;;;16.77;13.53;;;;;;;25.10;40.05;100261.20;1734801;81;21579;-60
2022/04/16 08:57:39;;;;;;;17.32;15.53;;;;;;;24.62;40.74;100272.17;1735260;81;21136;-56
2022/04/16 09:00:09;;;;;;;19.33;15.73;;;;;;;24.63;40.59;100261.80;1734754;81;21006;-57
2022/04/16 09:02:37;;;;;;;19.07;16.73;;;;;;;24.38;41.21;100264.82;1733880;82;21014;-57
2022/04/16 09:05:09;;;;;;;17.83;15.93;;;;;;;24.28;41.60;100266.19;1734568;82;21497;-58
2022/04/16 09:07:49;;;;;;;15.67;13.83;;;;;;;24.32;41.73;100271.27;1742074;82;20958;-57
2022/04/16 09:10:17;;;;;;;20.27;12.30;;;;;;;24.31;41.84;100262.98;1745794;81;21503;-65
2022/04/16 09:12:51;;;;;;;14.93;12.80;;;;;;;24.33;41.70;100271.52;1734901;82;21347;-57
2022/04/16 09:15:18;;;;;;;19.37;14.63;;;;;;;24.25;41.62;100274.75;1746375;82;21295;-60
2022/04/16 09:18:04;;;;;;;19.27;16.73;;;;;;;23.94;42.06;100267.39;1746354;81;20990;-57
2022/04/16 09:20:40;;;;;;;23.23;19.97;;;;;;;23.76;42.54;100267.47;1746438;81;21335;-58
2022/04/16 09:23:21;;;;;;;23.40;20.00;;;;;;;23.65;43.24;100264.53;1727690;82;20934;-58
2022/04/16 09:25:49;;;;;;;19.70;16.20;;;;;;;23.74;43.60;100257.61;1746347;81;21441;-61
2022/04/16 09:28:21;;;;;;;18.60;14.83;;;;;;;23.86;43.06;100263.42;1746563;81;21186;-58
2022/04/16 09:30:53;;;;;;;;;;;;;;;23.65;43.13;100261.33;1748695;82;20954;-58
2022/04/16 09:33:20;;;;;;;25.27;22.57;;;;;;;23.47;43.53;100266.68;1746404;81;20080;-57
2022/04/16 09:35:56;;;;;;;29.90;22.20;;;;;;;23.60;43.45;100256.54;1746026;81;20910;-57
2022/04/16 09:38:27;;;;;;;26.50;23.63;;;;;;;23.25;44.25;100265.62;1747032;81;20974;-58
2022/04/16 09:40:53;;;;;;;18.87;16.60;;;;;;;23.28;44.47;100271.75;1746251;82;21217;-58
2022/04/16 09:43:21;;;;;;;14.77;12.97;;;;;;;23.05;44.56;100276.27;1746194;81;21001;-62
2022/04/16 09:45:47;;;;;;;14.30;12.80;;;;;;;23.04;44.58;100283.45;1746018;82;20911;-57
2022/04/16 09:48:15;;;;;;;13.13;11.50;;;;;;;23.11;44.39;100268.58;1746324;82;20923;-59
2022/04/16 09:50:43;;;;;;;16.53;13.73;;;;;;;22.99;44.54;100274.66;1746381;82;21030;-57
2022/04/16 09:53:13;;;;;;;17.43;14.80;;;;;;;22.85;44.60;100286.86;1746126;81;20931;-57
2022/04/16 09:55:41;;;;;;;14.03;12.53;;;;;;;22.61;45.17;100278.02;1746234;81;21012;-57
2022/04/16 09:58:12;;;;;;;15.23;11.80;;;;;;;22.45;45.84;100278.52;1713343;83;21047;-57
2022/04/16 10:00:41;;;;;;;14.50;10.25;;;;;;;22.16;46.55;100273.36;1746797;80;20923;-57
2022/04/16 10:03:10;;;;;;;14.97;10.93;;;;;;;22.65;45.85;100272.98;1745964;82;21077;-57
2022/04/16 10:05:42;;;;;;;12.03;10.33;;;;;;;22.51;45.99;100272.17;1746849;81;21228;-57
2022/04/16 10:08:09;;;;;;;13.30;9.17;;;;;;;22.77;45.28;100266.92;1746315;82;22086;-58
2022/04/16 10:10:42;;;;;;;15.00;9.10;;;;;;;22.80;45.30;100266.37;1746650;81;20911;-57
2022/04/16 10:13:11;;;;;;;9.77;7.97;;;;;;;22.87;45.03;100258.94;1745915;81;20930;-65
2022/04/16 10:16:16;;;;;;;11.60;9.13;;;;;;;22.88;45.09;100249.92;1746935;81;21267;-58
2022/04/16 10:18:44;;;;;;;12.60;9.90;;;;;;;23.21;44.78;100245.16;1724673;82;21587;-58
2022/04/16 10:21:15;;;;;;;10.53;7.63;;;;;;;23.40;44.17;100245.41;1746512;82;21013;-57
2022/04/16 10:23:42;;;;;;;;;;;;;;;23.68;43.35;100235.55;1748809;82;20961;-57
2022/04/16 10:26:12;;;;;;;12.03;8.47;;;;;;;23.71;43.39;100242.17;1746595;81;20187;-58
2022/04/16 10:28:51;;;;;;;9.90;7.33;;;;;;;24.22;42.63;100245.45;1745238;82;20951;-57
2022/04/16 10:31:30;;;;;;;9.43;7.00;;;;;;;24.29;41.71;100243.83;1746447;81;22252;-59
2022/04/16 10:34:11;;;;;;;9.90;6.83;;;;;;;24.48;41.35;100240.03;1746454;81;20946;-58
2022/04/16 10:36:51;;;;;;;8.67;6.97;;;;;;;24.63;41.00;100221.81;1746511;81;21378;-57
2022/04/16 10:39:22;;;;;;;8.70;7.07;;;;;;;24.71;40.74;100225.22;1746463;82;21527;-61
2022/04/16 10:41:58;;;;;;;8.77;6.30;;;;;;;25.20;39.97;100222.98;1707446;83;21015;-66
2022/04/16 10:44:24;;;;;;;9.70;5.93;;;;;;;25.23;39.39;100223.22;1745508;81;21231;-61
2022/04/16 10:46:54;;;;;;;9.13;6.50;;;;;;;25.57;38.90;100237.55;1746700;81;20932;-57
2022/04/16 10:49:23;;;;;;;11.47;6.70;;;;;;;25.62;38.47;100237.52;1713372;82;21012;-57
2022/04/16 10:51:52;;;;;;;9.13;6.20;;;;;;;25.65;38.30;100239.63;1746225;81;20958;-58
2022/04/16 10:54:34;;;;;;;7.17;5.57;;;;;;;25.71;37.92;100238.47;1746442;81;20985;-57
2022/04/16 10:57:08;;;;;;;6.97;5.73;;;;;;;25.65;37.26;100230.28;1746457;81;21231;-57
2022/04/16 10:59:46;;;;;;;7.60;5.27;;;;;;;25.71;37.09;100234.47;1745861;82;20985;-57
2022/04/16 11:02:25;;;;;;;8.63;6.03;;;;;;;25.68;37.27;100227.02;1746421;81;21061;-57
2022/04/16 11:05:02;;;;;;;7.27;5.43;;;;;;;25.73;37.63;100223.77;1746349;81;21519;-67
2022/04/16 11:07:35;;;;;;;8.03;5.20;;;;;;;26.44;37.07;100220.75;1742688;82;20979;-57
2022/04/16 11:10:01;;;;;;;7.30;5.30;;;;;;;26.60;36.09;100223.23;1734886;81;21245;-59
2022/04/16 11:12:31;;;;;;;7.97;4.93;;;;;;;27.05;34.98;100216.87;1734447;82;20934;-57
2022/04/16 11:14:57;;;;;;;6.83;4.73;;;;;;;27.28;34.76;100211.17;1734463;81;21046;-56
2022/04/16 11:17:27;;;;;;;8.70;5.00;;;;;;;27.37;34.43;100214.19;1734307;82;21798;-57
2022/04/16 11:20:05;;;;;;;7.33;5.50;;;;;;;27.31;34.28;100213.23;1734618;82;20916;-60
2022/04/16 11:22:35;;;;;;;8.53;5.23;;;;;;;26.88;35.09;100210.20;1733782;82;21174;-58
2022/04/16 11:25:06;;;;;;;7.97;4.95;;;;;;;27.15;34.77;100209.50;1734742;81;21403;-59
2022/04/16 11:35:59;;;;;;;176.87;119.47;;;;;;;26.93;35.43;100194.08;1734504;81;21377;-59
2022/04/16 11:38:37;;;;;;;92.10;61.87;;;;;;;27.40;34.61;100183.37;1734751;81;21018;-58
2022/04/16 11:41:05;;;;;;;55.83;40.40;;;;;;;27.47;33.85;100174.95;1735010;81;20965;-58
2022/04/16 11:43:33;;;;;;;36.93;27.57;;;;;;;27.42;33.87;100165.11;1734878;81;20966;-59